• Join FlightAware (Why Join?)
  • Login
  • US Flag 
10:32PM EST


 

Airport Tracker/Info


-or-


 

Live Flight TrackerFlight Track Log ✈ N567MG ✈ 05-Jun-2014 ✈ KRSW - KVDF

Flight Track Log - Related Links

Times and Time Zones

All times are in EDT time to prevent confusion due to time zone crossing. See the N567MG flight status page for this flight to view local times or setup timezone preferences in your user account.

Time Position Orientation Groundspeed Altitude Reporting Facility
EDT Latitude Longitude Course Direction KTS MPH feet Rate Location/Type
08:35AM 26.2683 -81.7747 343° North 144 166 6,500  Level Miami Center
08:36AM 26.3103 -81.7869 345° North 153 176 6,500  Level Miami Center
08:37AM 26.3550 -81.8011 344° North 154 177 6,500  Level Miami Center
08:38AM 26.3958 -81.8142 344° North 154 177 6,500  Level Miami Center
08:39AM 26.7609 -81.8443 318° Northwest  Level FlightAware Approximate
08:39AM 26.4406 -81.8289 344° North 154 177 6,500  Level Miami Center
08:40AM 26.7981 -81.8610 343° North  Level FlightAware Approximate
08:40AM 26.4817 -81.8428 343° North 154 177 6,500  Level Miami Center
08:41AM 26.5242 -81.8567 344° North 156 180 6,500  Level Miami Center
08:42AM 26.5697 -81.8703 345° North 156 180 6,500  Level Miami Center
08:43AM 26.6119 -81.8847 343° North 157 181 6,500  Level Miami Center
08:44AM 26.6567 -81.8989 344° North 157 181 6,500  Level Miami Center
08:45AM 26.6986 -81.9128 344° North 157 181 6,500  Level Miami Center
08:46AM 26.7442 -81.9275 344° North 158 182 6,500  Level Miami Center
08:47AM 26.7858 -81.9414 343° North 158 182 6,500  Level Miami Center
08:48AM 26.8278 -81.9550 344° North 158 182 6,500  Level Miami Center
08:49AM 26.8731 -81.9694 344° North 158 182 6,500  Level Miami Center
08:50AM 26.9142 -81.9825 344° North 157 181 6,500  Level Miami Center
08:51AM 26.9597 -81.9978 343° North 157 181 6,500  Level Miami Center
08:52AM 27.0008 -82.0117 343° North 157 181 6,500  Level Miami Center
08:53AM 27.0392 -82.0244 343° North 158 182 6,500  Level Miami Center
08:54AM 27.0900 -82.0406 344° North 158 182 6,500  Level Miami Center
08:55AM 27.1325 -82.0544 344° North 158 182 6,500  Level Miami Center
08:56AM 27.1733 -82.0683 343° North 156 180 6,500  Level Miami Center
08:57AM 27.2153 -82.0822 344° North 157 181 6,500  Level Miami Center
08:58AM 27.2575 -82.0953 345° North 156 180 6,500  Level Miami Center
08:59AM 27.3000 -82.1094 344° North 156 180 6,500  Level Miami Center
09:00AM 27.3425 -82.1236 344° North 157 181 6,500  Level Miami Center
09:01AM 27.3853 -82.1378 344° North 157 181 6,500  Level Miami Center
09:02AM 27.4367 -82.1544 344° North 158 182 6,500  Level Miami Center
09:03AM 27.4789 -82.1686 343° North 158 182 6,500  Level Miami Center
09:04AM 27.5219 -82.1825 344° North 159 183 6,500  Level Miami Center
09:05AM 27.5644 -82.1964 344° North 158 182 6,500 -300 Level Miami Center
09:06AM 27.6097 -82.2108 344° North 166 191 6,000 -540 Descending Miami Center
09:07AM 27.6567 -82.2261 344° North 172 198 5,400 -540 Descending Miami Center
09:09AM 27.7167 -82.2500 341° North 175 201 4,900 -480 Descending Tampa TRACON
09:10AM 27.7667 -82.2667 344° North 176 203 4,400 -540 Descending Tampa TRACON
09:11AM 27.8000 -82.2833 336° Northwest 175 201 3,900 -600 Descending Tampa TRACON
09:12AM 27.8500 -82.3000 344° North 174 200 3,300 -600 Descending Tampa TRACON
09:13AM 27.9000 -82.3167 344° North 174 200 2,800 -540 Descending Tampa TRACON